Time;durP1;ratioP1;P1;durP2;ratioP2;P2;SDS_P1;SDS_P2;PMS_P1;PMS_P2;Temp;Humidity;BMP_temperature;BMP_pressure;BME280_temperature;BME280_humidity;BME280_pressure;Samples;Min_cycle;Max_cycle;Signal;HPM_P1;HPM_P2
2022/11/11 00:00:34;;;;;;;;;;;;;;;-144.99;86.26;52427.72;5064005;28;19997;-68
2022/11/11 00:03:02;;;;;;;;;;;;;;;-144.99;85.67;52421.59;5063208;28;19964;-68
2022/11/11 00:05:29;;;;;;;;;;;;;;;-144.99;86.28;52441.97;5062483;28;19993;-67
2022/11/11 00:07:58;;;;;;;;;;;;;;;-144.99;86.39;52423.63;5059774;28;20029;-68
2022/11/11 00:10:25;;;;;;;;;;;;;;;-144.99;86.49;52407.31;5063966;28;19932;-68
2022/11/11 00:12:51;;;;;;;;;;;;;;;-144.99;86.64;52439.94;5064661;28;20005;-68
2022/11/11 00:15:18;;;;;;;;;;;;;;;-144.99;87.13;52472.56;5073231;28;19941;-69
2022/11/11 00:26:04;;;;;;;;;;;;;;;-144.99;87.29;52411.41;5065912;28;19935;-66
2022/11/11 00:28:31;;;;;;;;;;;;;;;-144.99;87.53;52391.03;5051758;28;20161;-65
2022/11/11 00:31:04;;;;;;;;;;;;;;;-144.99;87.55;52435.88;5069905;28;20066;-66
2022/11/11 00:33:31;;;;;;;;;;;;;;;-144.99;87.71;52431.78;5058379;28;20142;-64
2022/11/11 00:35:58;;;;;;;;;;;;;;;-144.99;88.05;52429.75;5066859;28;19999;-64
2022/11/11 00:41:09;;;;;;;;;;;;;;;-144.99;87.81;52444.03;5067063;28;19982;-65
2022/11/11 00:43:35;;;;;;;;;;;;;;;-144.99;88.72;52472.56;5065820;28;19995;-66
2022/11/11 00:51:31;;;;;;;;;;;;;;;-144.99;89.09;52444.03;5066309;28;19966;-69
2022/11/11 00:53:57;;;;;;;;;;;;;;;-144.99;88.83;52433.81;5059594;28;20008;-66
2022/11/11 00:56:24;;;;;;;;;;;;;;;-144.99;89.42;52427.72;5066244;28;20040;-65
2022/11/11 00:58:51;;;;;;;;;;;;;;;-144.99;89.28;52419.56;5078996;28;20181;-65
2022/11/11 01:01:17;;;;;;;;;;;;;;;-144.99;89.60;52444.03;5067404;28;20497;-63
2022/11/11 01:03:44;;;;;;;;;;;;;;;-144.99;89.50;52435.88;5066018;28;19951;-69
2022/11/11 01:06:11;;;;;;;;;;;;;;;-144.99;89.76;52439.94;5068060;28;19955;-68
2022/11/11 01:08:39;;;;;;;;;;;;;;;-144.99;90.13;52472.56;5066516;28;19948;-69
2022/11/11 01:11:12;;;;;;;;;;;;;;;-144.99;89.78;52439.94;5068998;28;20019;-68
2022/11/11 01:13:38;;;;;;;;;;;;;;;-144.99;89.69;52444.03;5066659;28;20321;-67
2022/11/11 01:16:06;;;;;;;;;;;;;;;-144.99;90.56;52439.94;5065339;28;20298;-68
2022/11/11 01:18:33;;;;;;;;;;;;;;;-144.99;90.26;52431.78;5066288;28;20058;-66
2022/11/11 01:21:00;;;;;;;;;;;;;;;-144.99;90.63;52427.72;5069943;28;19978;-67
2022/11/11 01:23:27;;;;;;;;;;;;;;;-144.99;89.69;52407.31;5066200;28;19945;-68
2022/11/11 01:25:54;;;;;;;;;;;;;;;-144.99;89.93;52382.88;5058562;28;19952;-68
2022/11/11 01:28:21;;;;;;;;;;;;;;;-144.99;89.82;52431.78;5066325;28;20022;-68
2022/11/11 01:30:47;;;;;;;;;;;;;;;-144.99;89.99;52448.09;5070755;28;20001;-68
2022/11/11 01:33:14;;;;;;;;;;;;;;;-144.99;89.51;52427.72;5066761;28;20042;-67
2022/11/11 01:35:41;;;;;;;;;;;;;;;-144.99;90.27;52431.78;5066884;28;20333;-67
2022/11/11 01:38:08;;;;;;;;;;;;;;;-144.99;90.02;52403.25;5067885;28;19950;-68
2022/11/11 01:40:40;;;;;;;;;;;;;;;-144.99;90.01;52435.88;5082986;28;19954;-67
2022/11/11 01:43:20;;;;;;;;;;;;;;;-144.99;90.60;52419.56;5093298;28;19964;-67
2022/11/11 01:45:48;;;;;;;;;;;;;;;-144.99;90.47;52448.09;5062992;28;20217;-64
2022/11/11 01:51:02;;;;;;;;;;;;;;;-144.99;91.12;52476.63;5063377;28;20036;-63
2022/11/11 01:53:30;;;;;;;;;;;;;;;-144.99;90.93;52411.41;5060914;28;20078;-64
2022/11/11 01:55:57;;;;;;;;;;;;;;;-144.99;91.40;52382.88;5069006;28;19928;-65
2022/11/11 01:58:25;;;;;;;;;;;;;;;-144.99;90.55;52429.75;5072827;28;20476;-65
2022/11/11 02:00:51;;;;;;;;;;;;;;;-144.99;90.54;52415.47;5050803;28;20427;-64
2022/11/11 02:03:19;;;;;;;;;;;;;;;-144.99;91.61;52456.25;5061410;28;19959;-70
2022/11/11 02:05:45;;;;;;;;;;;;;;;-144.99;90.68;52472.56;5078165;28;20004;-72
2022/11/11 02:08:13;;;;;;;;;;;;;;;-144.99;90.75;52456.25;5070674;28;19992;-71
2022/11/11 02:10:42;;;;;;;;;;;;;;;-144.99;91.49;52431.78;5077724;28;20397;-71
2022/11/11 02:15:57;;;;;;;;;;;;;;;-144.99;91.02;52441.97;5076993;28;19988;-70
2022/11/11 02:18:24;;;;;;;;;;;;;;;-144.99;91.55;52439.94;5069973;28;19984;-68
2022/11/11 02:20:51;;;;;;;;;;;;;;;-144.99;91.54;52452.16;5075772;28;20450;-68
2022/11/11 02:23:22;;;;;;;;;;;;;;;-144.99;91.35;52433.81;5074359;28;20015;-67
2022/11/11 02:25:50;;;;;;;;;;;;;;;-144.99;91.60;52435.88;5076756;28;19954;-67
2022/11/11 02:28:18;;;;;;;;;;;;;;;-144.99;92.09;52448.09;5069694;28;19945;-66
2022/11/11 02:30:44;;;;;;;;;;;;;;;-144.99;91.50;52427.72;5076093;28;20483;-67
2022/11/11 02:33:11;;;;;;;;;;;;;;;-144.99;92.06;52484.78;5071484;28;19991;-69
2022/11/11 02:35:38;;;;;;;;;;;;;;;-144.99;92.52;52444.03;5064951;28;19959;-69
2022/11/11 02:38:08;;;;;;;;;;;;;;;-144.99;91.44;52439.94;5069868;28;19944;-70
2022/11/11 02:40:36;;;;;;;;;;;;;;;-144.99;92.41;52411.41;5078866;28;19956;-69
2022/11/11 02:43:06;;;;;;;;;;;;;;;-144.99;92.56;52417.53;5062430;28;21438;-69
2022/11/11 02:45:32;;;;;;;;;;;;;;;-144.99;91.95;52464.41;5074005;28;20373;-69
2022/11/11 02:47:59;;;;;;;;;;;;;;;-144.99;91.79;52427.72;5072779;28;19972;-68
2022/11/11 02:50:25;;;;;;;;;;;;;;;-144.99;91.61;52423.63;5076254;28;19953;-68
2022/11/11 02:52:52;;;;;;;;;;;;;;;-144.99;92.12;52372.69;5070680;28;20487;-68
2022/11/11 02:55:18;;;;;;;;;;;;;;;-144.99;92.47;52431.78;5074959;28;19938;-67
2022/11/11 02:57:45;;;;;;;;;;;;;;;-144.99;91.63;52423.63;5076435;28;20415;-67
2022/11/11 03:00:14;;;;;;;;;;;;;;;-144.99;91.45;52419.56;5061005;28;19943;-75
2022/11/11 03:02:40;;;;;;;;;;;;;;;-144.99;91.57;52431.78;5062305;28;19947;-67
2022/11/11 03:05:07;;;;;;;;;;;;;;;-144.99;91.83;52439.94;5076094;28;19999;-68
2022/11/11 03:07:34;;;;;;;;;;;;;;;-144.99;92.00;52439.94;5073073;28;20490;-68
2022/11/11 03:10:00;;;;;;;;;;;;;;;-144.99;92.24;52419.56;5072814;28;20536;-67
2022/11/11 03:12:27;;;;;;;;;;;;;;;-144.99;92.94;52431.78;5072574;28;20298;-67
2022/11/11 03:14:54;;;;;;;;;;;;;;;-144.99;93.03;52431.78;5073343;28;20006;-68
2022/11/11 03:17:39;;;;;;;;;;;;;;;-144.99;92.79;52423.63;5069507;28;20334;-67
2022/11/11 03:22:59;;;;;;;;;;;;;;;-144.99;93.92;52488.84;5073901;28;20032;-66
2022/11/11 03:25:37;;;;;;;;;;;;;;;-144.99;93.76;52448.09;5071183;28;19942;-66
2022/11/11 03:28:03;;;;;;;;;;;;;;;-144.99;94.74;52456.25;5069590;28;19981;-66
2022/11/11 03:30:30;;;;;;;;;;;;;;;-144.99;94.67;52425.66;5074122;28;20047;-65
2022/11/11 03:32:58;;;;;;;;;;;;;;;-144.99;94.81;52468.47;5072147;28;19963;-65
2022/11/11 03:35:24;;;;;;;;;;;;;;;-144.99;94.83;52427.72;5072167;28;19950;-67
2022/11/11 03:40:35;;;;;;;;;;;;;;;-144.99;95.04;52452.16;5074511;28;20364;-68
2022/11/11 03:43:02;;;;;;;;;;;;;;;-144.99;94.90;52474.59;5075591;28;20466;-66
2022/11/11 03:45:28;;;;;;;;;;;;;;;-144.99;95.21;52419.56;5071937;28;19942;-67
2022/11/11 03:47:57;;;;;;;;;;;;;;;-144.99;94.95;52441.97;5067188;28;20047;-66
2022/11/11 03:50:25;;;;;;;;;;;;;;;-144.99;94.69;52419.56;5067175;28;20485;-66
2022/11/11 03:52:51;;;;;;;;;;;;;;;-144.99;95.23;52448.09;5066161;28;19986;-67
2022/11/11 03:55:18;;;;;;;;;;;;;;;-144.99;96.02;52427.72;5067844;28;19963;-66
2022/11/11 03:57:45;;;;;;;;;;;;;;;-144.99;96.10;52421.59;5075556;28;20338;-68
2022/11/11 04:00:13;;;;;;;;;;;;;;;-144.99;95.81;52403.25;5073582;28;20043;-67
2022/11/11 04:10:55;;;;;;;;;;;;;;;-144.99;96.59;52431.78;5073025;28;19989;-68
2022/11/11 04:16:08;;;;;;;;;;;;;;;-144.99;97.45;52423.63;5074577;28;20050;-68
2022/11/11 04:24:01;;;;;;;;;;;;;;;-144.99;97.58;52386.94;5053700;28;20470;-68
2022/11/11 04:26:27;;;;;;;;;;;;;;;-144.99;98.27;52399.19;5073172;28;19946;-68
2022/11/11 04:32:34;;;;;;;;;;;;;;;-144.99;97.73;52435.88;5086246;28;20015;-68
2022/11/11 04:34:22;;;;;;;;;;;;;;;-144.99;98.43;52488.84;5084551;28;20052;-68
2022/11/11 04:36:49;;;;;;;;;;;;;;;-144.99;98.13;52478.66;5072249;28;20028;-63
2022/11/11 04:42:01;;;;;;;;;;;;;;;-144.99;98.84;52429.75;5071953;28;19965;-63
2022/11/11 04:47:23;;;;;;;;;;;;;;;-144.99;99.03;52407.31;4996491;28;19937;-63
2022/11/11 04:49:49;;;;;;;;;;;;;;;-144.99;99.29;52448.09;5057422;28;19924;-62
2022/11/11 04:52:28;;;;;;;;;;;;;;;-144.99;99.53;52423.63;5072661;28;19932;-70
2022/11/11 04:57:42;;;;;;;;;;;;;;;-144.99;99.60;52456.25;5080892;28;20521;-67
2022/11/11 05:00:10;;;;;;;;;;;;;;;-144.99;99.70;52448.09;5073753;28;19960;-67
2022/11/11 05:05:21;;;;;;;;;;;;;;;-144.99;99.79;52452.16;5083354;23;19955;-76
2022/11/11 05:10:33;;;;;;;;;;;;;;;-144.99;100.00;52419.56;5078650;28;20399;-71
2022/11/11 05:21:20;;;;;;;;;;;;;;;-144.99;100.00;52439.94;5068156;28;19991;-67
2022/11/11 05:26:32;;;;;;;;;;;;;;;-144.99;99.86;52419.56;5066514;28;19946;-67
2022/11/11 05:28:58;;;;;;;;;;;;;;;-144.99;99.80;52415.47;5061049;28;19992;-68
2022/11/11 05:31:25;;;;;;;;;;;;;;;-144.99;100.00;52407.31;5073348;28;20081;-71
2022/11/11 05:33:51;;;;;;;;;;;;;;;-144.99;100.00;52411.41;5075926;28;20441;-71
2022/11/11 05:36:18;;;;;;;;;;;;;;;-144.99;100.00;52456.25;5074013;28;19973;-70
2022/11/11 05:38:45;;;;;;;;;;;;;;;-144.99;100.00;52444.03;5060660;28;19949;-75
2022/11/11 05:41:11;;;;;;;;;;;;;;;-144.99;99.79;52439.94;5063477;28;20012;-66
2022/11/11 05:43:39;;;;;;;;;;;;;;;-144.99;100.00;52409.38;5068380;28;19929;-69
2022/11/11 05:46:05;;;;;;;;;;;;;;;-144.99;100.00;52472.56;5063014;28;20009;-70
2022/11/11 05:48:32;;;;;;;;;;;;;;;-144.99;100.00;52433.81;5059979;28;19950;-70
2022/11/11 05:50:59;;;;;;;;;;;;;;;-144.99;100.00;52425.66;5065085;28;19976;-69
2022/11/11 05:53:26;;;;;;;;;;;;;;;-144.99;100.00;52439.94;5064151;28;19971;-69
2022/11/11 05:55:52;;;;;;;;;;;;;;;-144.99;100.00;52462.34;5063453;28;20395;-69
2022/11/11 05:58:19;;;;;;;;;;;;;;;-144.99;100.00;52439.94;5081467;28;19966;-69
2022/11/11 06:00:47;;;;;;;;;;;;;;;-144.99;100.00;52462.34;5064334;28;19960;-69
2022/11/11 06:03:13;;;;;;;;;;;;;;;-144.99;100.00;52441.97;5068408;28;20368;-70
2022/11/11 06:05:40;;;;;;;;;;;;;;;-144.99;100.00;52472.56;5060436;28;20387;-69
2022/11/11 06:08:07;;;;;;;;;;;;;;;-144.99;100.00;52492.94;5054517;28;19978;-69
2022/11/11 06:10:33;;;;;;;;;;;;;;;-144.99;100.00;52460.31;5062305;28;20067;-68
2022/11/11 06:13:04;;;;;;;;;;;;;;;-144.99;100.00;52417.53;5063456;28;20012;-68
2022/11/11 06:15:31;;;;;;;;;;;;;;;-144.99;100.00;52448.09;5060139;28;19935;-66
2022/11/11 06:17:59;;;;;;;;;;;;;;;-144.99;100.00;52464.41;5081994;28;20037;-67
2022/11/11 06:20:25;;;;;;;;;;;;;;;-144.99;100.00;52431.78;5064682;28;20059;-67
2022/11/11 06:22:58;;;;;;;;;;;;;;;-144.99;100.00;52431.78;5075200;28;19950;-79
2022/11/11 06:28:16;;;;;;;;;;;;;;;-144.99;100.00;52431.78;5050322;28;19955;-78
2022/11/11 06:30:43;;;;;;;;;;;;;;;-144.99;100.00;52435.88;5046655;28;20431;-78
2022/11/11 06:33:11;;;;;;;;;;;;;;;-144.99;100.00;52452.16;5046190;28;20296;-79
2022/11/11 06:35:39;;;;;;;;;;;;;;;-144.99;100.00;52439.94;5064454;28;19948;-78
2022/11/11 06:38:07;;;;;;;;;;;;;;;-144.99;100.00;52456.25;5055918;28;19948;-78
2022/11/11 06:40:33;;;;;;;;;;;;;;;-144.99;100.00;52417.53;5058889;28;20009;-78
2022/11/11 06:43:00;;;;;;;;;;;;;;;-144.99;100.00;52448.09;5051362;28;19943;-78
2022/11/11 06:45:27;;;;;;;;;;;;;;;-144.99;100.00;52401.22;5054584;28;20224;-78
2022/11/11 06:47:54;;;;;;;;;;;;;;;-144.99;100.00;52444.03;5053368;28;19932;-78
2022/11/11 06:50:22;;;;;;;;;;;;;;;-144.99;100.00;52474.59;5058077;28;20524;-79
2022/11/11 06:52:48;;;;;;;;;;;;;;;-144.99;100.00;52474.59;5050006;28;19948;-78
2022/11/11 06:55:17;;;;;;;;;;;;;;;-144.99;100.00;52423.63;5062372;28;20031;-78
2022/11/11 06:57:43;;;;;;;;;;;;;;;-144.99;100.00;52441.97;5053175;28;20334;-77
2022/11/11 07:00:10;;;;;;;;;;;;;;;-144.99;100.00;52427.72;5044871;28;19948;-79
2022/11/11 07:02:37;;;;;;;;;;;;;;;-144.99;100.00;52429.75;5064389;28;19928;-78
2022/11/11 07:05:04;;;;;;;;;;;;;;;-144.99;100.00;52423.63;5085551;28;19955;-79
2022/11/11 07:07:32;;;;;;;;;;;;;;;-144.99;100.00;52448.09;5083457;28;19951;-79
2022/11/11 07:09:58;;;;;;;;;;;;;;;-144.99;100.00;52435.88;5064674;28;20395;-80
2022/11/11 07:12:25;;;;;;;;;;;;;;;-144.99;100.00;52423.63;5066084;28;20010;-80
2022/11/11 07:14:51;;;;;;;;;;;;;;;-144.99;100.00;52444.03;5076709;28;20018;-79
2022/11/11 07:17:18;;;;;;;;;;;;;;;-144.99;100.00;52460.31;5064113;28;19932;-78
2022/11/11 07:19:45;;;;;;;;;;;;;;;-144.99;100.00;52450.13;5064635;28;20466;-78
2022/11/11 07:22:11;;;;;;;;;;;;;;;-144.99;100.00;52456.25;5064429;28;20000;-80
2022/11/11 07:24:39;;;;;;;;;;;;;;;-144.99;100.00;52431.78;5064160;28;19947;-80
2022/11/11 07:27:06;;;;;;;;;;;;;;;-144.99;100.00;52423.63;5060366;28;20007;-79
2022/11/11 07:29:32;;;;;;;;;;;;;;;-144.99;100.00;52425.66;5056858;28;20010;-78
2022/11/11 07:31:59;;;;;;;;;;;;;;;-144.99;100.00;52468.47;5059199;28;19971;-79
2022/11/11 07:34:27;;;;;;;;;;;;;;;-144.99;100.00;52439.94;5064122;28;19998;-79
2022/11/11 07:36:54;;;;;;;;;;;;;;;-144.99;100.00;52427.72;5073646;28;19928;-78
2022/11/11 07:39:20;;;;;;;;;;;;;;;-144.99;100.00;52450.13;5074567;28;19947;-79
2022/11/11 07:41:48;;;;;;;;;;;;;;;-144.99;100.00;52472.56;5094154;28;19924;-78
2022/11/11 07:44:15;;;;;;;;;;;;;;;-144.99;100.00;52431.78;5079062;28;20089;-78
2022/11/11 07:46:41;;;;;;;;;;;;;;;-144.99;100.00;52468.47;5065046;28;19943;-79
2022/11/11 07:49:08;;;;;;;;;;;;;;;-144.99;100.00;52456.25;5058703;28;19967;-78
2022/11/11 07:51:35;;;;;;;;;;;;;;;-144.99;100.00;52448.09;5087077;28;20002;-78
2022/11/11 07:54:01;;;;;;;;;;;;;;;-144.99;100.00;52456.25;5058120;28;20089;-78
2022/11/11 07:56:27;;;;;;;;;;;;;;;-144.99;100.00;52415.47;5061897;28;20524;-77
2022/11/11 07:58:55;;;;;;;;;;;;;;;-144.99;100.00;52456.25;5070709;28;20430;-78
2022/11/11 08:01:22;;;;;;;;;;;;;;;-144.99;100.00;52474.59;5071101;28;20451;-77
2022/11/11 08:03:51;;;;;;;;;;;;;;;-144.99;100.00;52452.16;4717272;28;10000505;-78
2022/11/11 08:06:18;;;;;;;;;;;;;;;-144.99;100.00;52407.31;5067116;28;20031;-77
2022/11/11 08:08:45;;;;;;;;;;;;;;;-144.99;100.00;52407.31;5070408;28;19975;-78
2022/11/11 08:11:11;;;;;;;;;;;;;;;-144.99;100.00;52439.94;5071491;28;19928;-78
2022/11/11 08:13:39;;;;;;;;;;;;;;;-144.99;100.00;52415.47;5084704;28;20031;-78
2022/11/11 08:16:08;;;;;;;;;;;;;;;-144.99;100.00;52468.47;5071581;28;20305;-79
2022/11/11 08:18:34;;;;;;;;;;;;;;;-144.99;100.00;52501.09;5071938;28;20053;-76
2022/11/11 08:21:01;;;;;;;;;;;;;;;-144.99;100.00;52460.31;5071827;28;19962;-77
2022/11/11 08:23:32;;;;;;;;;;;;;;;-144.99;100.00;52431.78;5077437;28;19979;-78
2022/11/11 08:25:59;;;;;;;;;;;;;;;-144.99;100.00;52456.25;5054748;28;20408;-78
2022/11/11 08:28:25;;;;;;;;;;;;;;;-144.99;100.00;52444.03;5066156;28;20457;-79
2022/11/11 08:30:52;;;;;;;;;;;;;;;-144.99;100.00;52460.31;5063951;28;19966;-80
2022/11/11 08:33:20;;;;;;;;;;;;;;;-144.99;100.00;52388.97;5072062;28;20012;-77
2022/11/11 08:35:46;;;;;;;;;;;;;;;-144.99;100.00;52429.75;5085044;28;19968;-78
2022/11/11 08:38:13;;;;;;;;;;;;;;;-144.99;100.00;52452.16;5084843;28;19929;-79
2022/11/11 08:40:40;;;;;;;;;;;;;;;-144.99;100.00;52423.63;5072163;28;19962;-80
2022/11/11 08:43:06;;;;;;;;;;;;;;;-144.99;100.00;52403.25;5085240;28;19978;-79
2022/11/11 08:45:33;;;;;;;;;;;;;;;-144.99;100.00;52439.94;5074037;28;19952;-79
2022/11/11 08:47:59;;;;;;;;;;;;;;;-144.99;100.00;52464.41;5066455;28;20334;-79
2022/11/11 08:50:27;;;;;;;;;;;;;;;-144.99;100.00;52439.94;5064204;28;20060;-78
2022/11/11 08:52:54;;;;;;;;;;;;;;;-144.99;100.00;52460.31;5066976;28;19948;-78
2022/11/11 08:55:20;;;;;;;;;;;;;;;-144.99;100.00;52454.22;5071735;28;20356;-78
2022/11/11 08:57:47;;;;;;;;;;;;;;;-144.99;100.00;52454.22;5068817;28;20315;-79
2022/11/11 09:00:14;;;;;;;;;;;;;;;-144.99;100.00;52415.47;5086348;28;20358;-78
2022/11/11 09:02:41;;;;;;;;;;;;;;;-144.99;100.00;52431.78;5067410;28;20398;-78
2022/11/11 09:05:08;;;;;;;;;;;;;;;-144.99;100.00;52415.47;5067104;28;19953;-79
2022/11/11 09:07:35;;;;;;;;;;;;;;;-144.99;100.00;52421.59;5066779;28;19954;-79
2022/11/11 09:10:02;;;;;;;;;;;;;;;-144.99;100.00;52446.06;5067561;28;19950;-78
2022/11/11 09:12:29;;;;;;;;;;;;;;;-144.99;100.00;52423.63;5075809;28;19932;-80
2022/11/11 09:14:55;;;;;;;;;;;;;;;-144.99;100.00;52460.31;5071122;28;20018;-79
2022/11/11 09:17:22;;;;;;;;;;;;;;;-144.99;100.00;52439.94;5067915;28;19929;-79
2022/11/11 09:19:48;;;;;;;;;;;;;;;-144.99;100.00;52419.56;5068660;28;20374;-79
2022/11/11 09:22:15;;;;;;;;;;;;;;;-144.99;100.00;52431.78;5067288;28;19924;-80
2022/11/11 09:24:43;;;;;;;;;;;;;;;-144.99;100.00;52460.31;5064500;28;20060;-80
2022/11/11 09:27:10;;;;;;;;;;;;;;;-144.99;100.00;52452.16;5060931;28;20025;-79
2022/11/11 09:29:37;;;;;;;;;;;;;;;-144.99;100.00;52439.94;5060581;28;19946;-79
2022/11/11 09:32:04;;;;;;;;;;;;;;;-144.99;100.00;52448.09;5068280;28;19969;-79
2022/11/11 09:34:30;;;;;;;;;;;;;;;-144.99;100.00;52435.88;5071609;28;20053;-78
2022/11/11 09:36:57;;;;;;;;;;;;;;;-144.99;100.00;52423.63;5077035;28;20000;-80
2022/11/11 09:39:23;;;;;;;;;;;;;;;-144.99;100.00;52439.94;5085059;28;20406;-79
2022/11/11 09:41:58;;;;;;;;;;;;;;;-144.99;100.00;52431.78;5059108;28;19968;-79
2022/11/11 09:44:32;;;;;;;;;;;;;;;-144.99;100.00;52441.97;5079139;28;19991;-78
2022/11/11 09:47:03;;;;;;;;;;;;;;;-144.99;100.00;52421.59;5056779;28;20216;-80
2022/11/11 09:49:48;;;;;;;;;;;;;;;-144.99;100.00;52419.56;5054019;28;19950;-81
2022/11/11 09:52:17;;;;;;;;;;;;;;;-144.99;100.00;52374.72;5066688;28;19958;-78
2022/11/11 09:54:46;;;;;;;;;;;;;;;-144.99;100.00;52435.88;5089438;28;19948;-81
2022/11/11 09:57:19;;;;;;;;;;;;;;;-144.99;100.00;52407.31;5085676;28;19970;-79
2022/11/11 09:59:47;;;;;;;;;;;;;;;-144.99;100.00;52427.72;5076136;28;19949;-79
2022/11/11 10:02:25;;;;;;;;;;;;;;;-144.99;100.00;52444.03;5074931;28;19957;-80
2022/11/11 10:04:55;;;;;;;;;;;;;;;-144.99;100.00;52386.94;5069930;28;19947;-80
2022/11/11 10:07:25;;;;;;;;;;;;;;;-144.99;100.00;52407.31;5074685;28;19953;-80
2022/11/11 10:09:55;;;;;;;;;;;;;;;-144.99;100.00;52423.63;5074482;28;19947;-80
2022/11/11 10:12:36;;;;;;;;;;;;;;;-144.99;100.00;52401.22;5082035;28;20031;-81
2022/11/11 10:15:04;;;;;;;;;;;;;;;-144.99;100.00;52419.56;5090976;28;19983;-79
2022/11/11 10:17:34;;;;;;;;;;;;;;;-144.99;100.00;52407.31;5093895;28;20450;-80
2022/11/11 10:20:05;;;;;;;;;;;;;;;-144.99;100.00;52419.56;5099096;28;19959;-82
2022/11/11 10:22:33;;;;;;;;;;;;;;;-144.99;100.00;52425.66;5099522;28;19959;-82
2022/11/11 10:25:06;;;;;;;;;;;;;;;-144.99;100.00;52427.72;5081623;28;19933;-82
2022/11/11 10:27:34;;;;;;;;;;;;;;;-144.99;100.00;52423.63;5081373;28;19967;-83
2022/11/11 10:30:08;;;;;;;;;;;;;;;-144.99;100.00;52403.25;5082916;28;19928;-82
2022/11/11 10:32:35;;;;;;;;;;;;;;;-144.99;99.09;52391.03;5069250;28;19957;-80
2022/11/11 10:35:12;;;;;;;;;;;;;;;-144.99;97.71;52388.97;5072466;28;19968;-78
2022/11/11 10:37:40;;;;;;;;;;;;;;;-144.99;96.70;52382.88;5060400;28;19947;-81
2022/11/11 10:40:12;;;;;;;;;;;;;;;-144.99;95.76;52386.94;5082378;28;20381;-80
2022/11/11 10:42:40;;;;;;;;;;;;;;;-144.99;95.59;52403.25;5087704;28;20406;-80
2022/11/11 10:45:11;;;;;;;;;;;;;;;-144.99;94.60;52368.59;5075270;28;19924;-78
2022/11/11 10:47:42;;;;;;;;;;;;;;;-144.99;94.25;52421.59;5063942;28;19947;-79
2022/11/11 10:50:12;;;;;;;;;;;;;;;-144.99;92.56;52423.63;5069905;28;19968;-78
2022/11/11 10:52:41;;;;;;;;;;;;;;;-144.99;91.91;52382.88;5058557;28;19951;-80
2022/11/11 10:55:09;;;;;;;;;;;;;;;-144.99;91.10;52421.59;5057704;28;20512;-78
2022/11/11 10:57:38;;;;;;;;;;;;;;;-144.99;91.67;52399.19;5072232;28;19954;-78
2022/11/11 11:00:07;;;;;;;;;;;;;;;-144.99;91.69;52407.31;5072963;28;19987;-81
2022/11/11 11:02:39;;;;;;;;;;;;;;;-144.99;92.56;52415.47;5061188;28;19943;-80
2022/11/11 11:05:08;;;;;;;;;;;;;;;-144.99;92.18;52423.63;5067767;28;20236;-80
2022/11/11 11:07:39;;;;;;;;;;;;;;;-144.99;92.64;52446.06;5092460;23;19959;-73
2022/11/11 11:10:08;;;;;;;;;;;;;;;-144.99;92.29;52374.72;5083903;28;20382;-72
2022/11/11 11:12:38;;;;;;;;;;;;;;;-144.99;91.42;52411.41;5088046;28;19955;-71
2022/11/11 11:15:10;;;;;;;;;;;;;;;-144.99;91.11;52439.94;5089019;28;20016;-71
2022/11/11 11:17:39;;;;;;;;;;;;;;;-144.99;90.49;52386.94;5073519;28;19968;-71
2022/11/11 11:20:07;;;;;;;;;;;;;;;-144.99;90.68;52407.31;5066118;28;19968;-71
2022/11/11 11:22:44;;;;;;;;;;;;;;;-144.99;90.40;52399.19;5078421;28;19996;-72
2022/11/11 11:25:11;;;;;;;;;;;;;;;-144.99;90.75;52395.09;4716364;28;10000521;-73
2022/11/11 11:27:38;;;;;;;;;;;;;;;-144.99;90.56;52423.63;5054579;28;19960;-70
2022/11/11 11:30:11;;;;;;;;;;;;;;;-144.99;90.51;52382.88;5059186;28;20067;-72
2022/11/11 11:32:41;;;;;;;;;;;;;;;-144.99;90.20;52386.94;5064417;28;19969;-72
2022/11/11 11:35:07;;;;;;;;;;;;;;;-144.99;90.00;52427.72;5065454;28;19969;-71
2022/11/11 11:37:47;;;;;;;;;;;;;;;-144.99;89.81;52419.56;5064246;28;19966;-70
2022/11/11 11:40:14;;;;;;;;;;;;;;;-144.99;90.42;52386.94;5065215;28;19987;-70
2022/11/11 11:42:42;;;;;;;;;;;;;;;-144.99;90.44;52393.06;5065035;28;20312;-70
2022/11/11 11:45:20;;;;;;;;;;;;;;;-144.99;90.79;52427.72;5064781;28;19953;-71
2022/11/11 11:47:51;;;;;;;;;;;;;;;-144.99;90.25;52439.94;5064472;28;20267;-71
2022/11/11 11:50:29;;;;;;;;;;;;;;;-144.99;90.77;52366.56;5064455;28;19981;-72
2022/11/11 11:53:01;;;;;;;;;;;;;;;-144.99;90.58;52427.72;5064480;28;20391;-73
2022/11/11 11:55:29;;;;;;;;;;;;;;;-144.99;90.54;52439.94;5050947;28;20013;-72
2022/11/11 11:58:01;;;;;;;;;;;;;;;-144.99;91.09;52419.56;5065916;28;20012;-71
2022/11/11 12:00:30;;;;;;;;;;;;;;;-144.99;91.64;52435.88;5063482;28;19950;-72
2022/11/11 12:03:06;;;;;;;;;;;;;;;-144.99;91.70;52423.63;5071351;28;19954;-73
2022/11/11 12:05:37;;;;;;;;;;;;;;;-144.99;91.74;52431.78;5068433;28;19981;-71
2022/11/11 12:08:11;;;;;;;;;;;;;;;-144.99;91.70;52407.31;5065180;28;19969;-71
2022/11/11 12:10:43;;;;;;;;;;;;;;;-144.99;91.82;52415.47;5065723;28;20038;-71
2022/11/11 12:13:15;;;;;;;;;;;;;;;-144.99;91.78;52431.78;5064218;28;20328;-71
2022/11/11 12:15:47;;;;;;;;;;;;;;;-144.99;91.61;52423.63;5064600;28;20032;-72
2022/11/11 12:18:31;;;;;;;;;;;;;;;-144.99;92.12;52439.94;5064843;28;19947;-73
2022/11/11 12:21:04;;;;;;;;;;;;;;;-144.99;91.56;52431.78;5065347;28;19997;-75
2022/11/11 12:23:48;;;;;;;;;;;;;;;-144.99;90.95;52423.63;5064144;28;20403;-73
2022/11/11 12:26:19;;;;;;;;;;;;;;;-144.99;90.63;52403.25;5057989;28;20074;-71
2022/11/11 12:28:52;;;;;;;;;;;;;;;-144.99;91.08;52386.94;5062640;28;20024;-70
2022/11/11 12:31:28;;;;;;;;;;;;;;;-144.99;90.74;52427.72;5065548;28;19983;-73
2022/11/11 12:34:04;;;;;;;;;;;;;;;-144.99;91.20;52407.31;5068258;28;20030;-72
2022/11/11 12:36:35;;;;;;;;;;;;;;;-144.99;91.20;52431.78;5067984;28;20529;-72
2022/11/11 12:39:05;;;;;;;;;;;;;;;-144.99;91.69;52431.78;5068536;28;19957;-72
2022/11/11 12:41:40;;;;;;;;;;;;;;;-144.99;91.53;52399.19;5072353;28;19970;-75
2022/11/11 12:44:08;;;;;;;;;;;;;;;-144.99;91.32;52435.88;5083843;28;20599;-72
2022/11/11 12:46:50;;;;;;;;;;;;;;;-144.99;91.53;52427.72;5070514;28;20322;-73
2022/11/11 12:49:26;;;;;;;;;;;;;;;-144.99;92.44;52429.75;5069632;28;20427;-72
2022/11/11 12:51:56;;;;;;;;;;;;;;;-144.99;92.13;52427.72;5069371;28;19970;-73
2022/11/11 12:54:27;;;;;;;;;;;;;;;-144.99;91.58;52439.94;5070267;28;20497;-72
2022/11/11 12:56:59;;;;;;;;;;;;;;;-144.99;91.00;52421.59;5067414;28;20003;-73
2022/11/11 12:59:32;;;;;;;;;;;;;;;-144.99;91.42;52439.94;5066631;28;19974;-72
2022/11/11 13:02:07;;;;;;;;;;;;;;;-144.99;91.59;52407.31;5066742;28;19946;-70
2022/11/11 13:04:39;;;;;;;;;;;;;;;-144.99;92.36;52435.88;5068543;28;20458;-71
2022/11/11 13:07:27;;;;;;;;;;;;;;;-144.99;92.00;52421.59;5067559;28;20463;-71
2022/11/11 13:10:02;;;;;;;;;;;;;;;-144.99;91.80;52431.78;5070100;28;20005;-73
2022/11/11 13:12:31;;;;;;;;;;;;;;;-144.99;92.03;52462.34;5068043;28;19929;-70
2022/11/11 13:15:02;;;;;;;;;;;;;;;-144.99;93.16;52444.03;5069461;28;19956;-72
2022/11/11 13:17:31;;;;;;;;;;;;;;;-144.99;92.14;52435.88;5070590;28;20004;-72
2022/11/11 13:19:59;;;;;;;;;;;;;;;-144.99;91.84;52386.94;5070813;28;19955;-73
2022/11/11 13:22:26;;;;;;;;;;;;;;;-144.99;92.09;52407.31;5074316;28;20008;-72
2022/11/11 13:24:54;;;;;;;;;;;;;;;-144.99;92.35;52425.66;5073675;28;19942;-72
2022/11/11 13:27:28;;;;;;;;;;;;;;;-144.99;90.62;52372.69;5055608;28;20660;-73
2022/11/11 13:30:07;;;;;;;;;;;;;;;-144.99;90.59;52444.03;5066490;28;19967;-74
2022/11/11 13:32:38;;;;;;;;;;;;;;;-144.99;91.14;52427.72;5052207;28;19979;-72
2022/11/11 13:35:15;;;;;;;;;;;;;;;-144.99;92.80;52444.03;5067761;28;19949;-70
2022/11/11 13:37:44;;;;;;;;;;;;;;;-144.99;91.99;52437.91;5071896;28;19965;-70
2022/11/11 13:40:24;;;;;;;;;;;;;;;-144.99;92.55;52427.72;5074215;28;20426;-71
2022/11/11 13:42:52;;;;;;;;;;;;;;;-144.99;91.93;52427.72;5075466;28;20280;-69
2022/11/11 13:45:24;;;;;;;;;;;;;;;-144.99;92.24;52401.22;5061736;28;19980;-71